sensor_id;sensor_type;location;lat;lon;timestamp;P1;durP1;ratioP1;P2;durP2;ratioP2
37199;SDS011;23096;50.892;16.746;2024-01-30T00:01:54;11.20;;;5.40;;
37199;SDS011;23096;50.892;16.746;2024-01-30T00:04:20;11.80;;;4.80;;
37199;SDS011;23096;50.892;16.746;2024-01-30T00:06:46;11.70;;;5.20;;
37199;SDS011;23096;50.892;16.746;2024-01-30T00:09:11;11.00;;;5.30;;
37199;SDS011;23096;50.892;16.746;2024-01-30T00:11:38;9.90;;;4.90;;
37199;SDS011;23096;50.892;16.746;2024-01-30T00:14:04;10.90;;;5.80;;
37199;SDS011;23096;50.892;16.746;2024-01-30T00:16:33;12.30;;;6.60;;
37199;SDS011;23096;50.892;16.746;2024-01-30T00:18:59;11.70;;;6.00;;
37199;SDS011;23096;50.892;16.746;2024-01-30T00:21:30;12.80;;;6.80;;
37199;SDS011;23096;50.892;16.746;2024-01-30T00:23:55;12.20;;;6.10;;
37199;SDS011;23096;50.892;16.746;2024-01-30T00:26:21;12.60;;;5.80;;
37199;SDS011;23096;50.892;16.746;2024-01-30T00:28:47;12.70;;;6.20;;
37199;SDS011;23096;50.892;16.746;2024-01-30T00:31:12;9.20;;;4.90;;
37199;SDS011;23096;50.892;16.746;2024-01-30T00:33:38;11.70;;;5.90;;
37199;SDS011;23096;50.892;16.746;2024-01-30T00:36:08;14.50;;;6.20;;
37199;SDS011;23096;50.892;16.746;2024-01-30T00:38:35;10.30;;;5.70;;
37199;SDS011;23096;50.892;16.746;2024-01-30T00:41:01;11.60;;;5.40;;
37199;SDS011;23096;50.892;16.746;2024-01-30T00:43:30;16.80;;;8.00;;
37199;SDS011;23096;50.892;16.746;2024-01-30T00:45:56;13.10;;;7.00;;
37199;SDS011;23096;50.892;16.746;2024-01-30T00:48:23;13.00;;;6.90;;
37199;SDS011;23096;50.892;16.746;2024-01-30T00:50:48;13.10;;;6.30;;
37199;SDS011;23096;50.892;16.746;2024-01-30T00:53:14;10.50;;;5.60;;
37199;SDS011;23096;50.892;16.746;2024-01-30T00:55:39;10.20;;;5.10;;
37199;SDS011;23096;50.892;16.746;2024-01-30T00:58:05;12.40;;;6.00;;
37199;SDS011;23096;50.892;16.746;2024-01-30T01:00:31;14.00;;;5.90;;
37199;SDS011;23096;50.892;16.746;2024-01-30T01:02:58;13.20;;;5.40;;
37199;SDS011;23096;50.892;16.746;2024-01-30T01:05:24;13.00;;;5.80;;
37199;SDS011;23096;50.892;16.746;2024-01-30T01:07:50;10.40;;;5.20;;
37199;SDS011;23096;50.892;16.746;2024-01-30T01:10:16;9.80;;;4.60;;
37199;SDS011;23096;50.892;16.746;2024-01-30T01:12:43;10.80;;;4.80;;
37199;SDS011;23096;50.892;16.746;2024-01-30T01:15:09;9.60;;;5.30;;
37199;SDS011;23096;50.892;16.746;2024-01-30T01:17:35;8.60;;;4.10;;
37199;SDS011;23096;50.892;16.746;2024-01-30T01:20:02;10.70;;;4.70;;
37199;SDS011;23096;50.892;16.746;2024-01-30T01:22:28;11.40;;;4.70;;
37199;SDS011;23096;50.892;16.746;2024-01-30T01:24:54;11.10;;;5.70;;
37199;SDS011;23096;50.892;16.746;2024-01-30T01:27:20;10.50;;;4.90;;
37199;SDS011;23096;50.892;16.746;2024-01-30T01:29:46;8.30;;;4.30;;
37199;SDS011;23096;50.892;16.746;2024-01-30T01:32:11;7.80;;;4.50;;
37199;SDS011;23096;50.892;16.746;2024-01-30T01:34:37;8.50;;;4.50;;
37199;SDS011;23096;50.892;16.746;2024-01-30T01:37:05;9.00;;;4.80;;
37199;SDS011;23096;50.892;16.746;2024-01-30T01:39:32;10.80;;;4.90;;
37199;SDS011;23096;50.892;16.746;2024-01-30T01:41:58;12.10;;;5.60;;
37199;SDS011;23096;50.892;16.746;2024-01-30T01:44:24;8.40;;;5.10;;
37199;SDS011;23096;50.892;16.746;2024-01-30T01:46:49;7.20;;;4.40;;
37199;SDS011;23096;50.892;16.746;2024-01-30T01:49:17;7.70;;;4.50;;
37199;SDS011;23096;50.892;16.746;2024-01-30T01:51:49;11.60;;;5.60;;
37199;SDS011;23096;50.892;16.746;2024-01-30T01:54:17;12.90;;;5.90;;
37199;SDS011;23096;50.892;16.746;2024-01-30T01:56:42;12.30;;;4.80;;
37199;SDS011;23096;50.892;16.746;2024-01-30T01:59:11;10.70;;;4.80;;
37199;SDS011;23096;50.892;16.746;2024-01-30T02:01:37;8.80;;;4.40;;
37199;SDS011;23096;50.892;16.746;2024-01-30T02:04:06;6.80;;;3.50;;
37199;SDS011;23096;50.892;16.746;2024-01-30T02:06:34;9.30;;;4.60;;
37199;SDS011;23096;50.892;16.746;2024-01-30T02:09:00;11.90;;;5.00;;
37199;SDS011;23096;50.892;16.746;2024-01-30T02:11:27;9.50;;;5.00;;
37199;SDS011;23096;50.892;16.746;2024-01-30T02:13:53;7.20;;;4.00;;
37199;SDS011;23096;50.892;16.746;2024-01-30T02:16:19;9.20;;;4.90;;
37199;SDS011;23096;50.892;16.746;2024-01-30T02:18:44;10.40;;;4.70;;
37199;SDS011;23096;50.892;16.746;2024-01-30T02:21:13;7.20;;;3.70;;
37199;SDS011;23096;50.892;16.746;2024-01-30T02:23:40;9.40;;;4.80;;
37199;SDS011;23096;50.892;16.746;2024-01-30T02:26:07;7.90;;;4.30;;
37199;SDS011;23096;50.892;16.746;2024-01-30T02:28:32;11.40;;;4.20;;
37199;SDS011;23096;50.892;16.746;2024-01-30T02:30:58;8.60;;;4.10;;
37199;SDS011;23096;50.892;16.746;2024-01-30T02:33:23;10.10;;;4.70;;
37199;SDS011;23096;50.892;16.746;2024-01-30T02:35:49;7.20;;;3.90;;
37199;SDS011;23096;50.892;16.746;2024-01-30T02:38:15;7.20;;;4.60;;
37199;SDS011;23096;50.892;16.746;2024-01-30T02:40:41;6.70;;;3.50;;
37199;SDS011;23096;50.892;16.746;2024-01-30T02:43:06;10.20;;;4.50;;
37199;SDS011;23096;50.892;16.746;2024-01-30T02:45:32;7.40;;;3.80;;
37199;SDS011;23096;50.892;16.746;2024-01-30T02:47:57;6.40;;;3.70;;
37199;SDS011;23096;50.892;16.746;2024-01-30T02:50:23;7.00;;;3.70;;
37199;SDS011;23096;50.892;16.746;2024-01-30T02:52:48;6.70;;;3.60;;
37199;SDS011;23096;50.892;16.746;2024-01-30T02:55:14;6.00;;;3.60;;
37199;SDS011;23096;50.892;16.746;2024-01-30T02:57:42;8.20;;;3.80;;
37199;SDS011;23096;50.892;16.746;2024-01-30T03:00:08;8.50;;;4.00;;
37199;SDS011;23096;50.892;16.746;2024-01-30T03:02:35;6.50;;;3.40;;
37199;SDS011;23096;50.892;16.746;2024-01-30T03:05:00;5.30;;;3.50;;
37199;SDS011;23096;50.892;16.746;2024-01-30T03:07:26;10.60;;;4.50;;
37199;SDS011;23096;50.892;16.746;2024-01-30T03:09:52;7.60;;;3.30;;
37199;SDS011;23096;50.892;16.746;2024-01-30T03:12:17;5.60;;;3.50;;
37199;SDS011;23096;50.892;16.746;2024-01-30T03:14:43;8.00;;;4.10;;
37199;SDS011;23096;50.892;16.746;2024-01-30T03:17:09;6.30;;;3.30;;
37199;SDS011;23096;50.892;16.746;2024-01-30T03:19:34;9.20;;;4.00;;
37199;SDS011;23096;50.892;16.746;2024-01-30T03:22:00;6.00;;;3.30;;
37199;SDS011;23096;50.892;16.746;2024-01-30T03:24:26;10.40;;;4.20;;
37199;SDS011;23096;50.892;16.746;2024-01-30T03:26:52;6.60;;;3.20;;
37199;SDS011;23096;50.892;16.746;2024-01-30T03:29:18;9.60;;;3.60;;
37199;SDS011;23096;50.892;16.746;2024-01-30T03:31:44;11.00;;;3.40;;
37199;SDS011;23096;50.892;16.746;2024-01-30T03:34:09;7.50;;;3.50;;
37199;SDS011;23096;50.892;16.746;2024-01-30T03:36:35;7.90;;;3.40;;
37199;SDS011;23096;50.892;16.746;2024-01-30T03:39:01;6.90;;;3.60;;
37199;SDS011;23096;50.892;16.746;2024-01-30T03:41:27;7.10;;;3.30;;
37199;SDS011;23096;50.892;16.746;2024-01-30T03:43:53;6.60;;;3.90;;
37199;SDS011;23096;50.892;16.746;2024-01-30T03:46:18;8.40;;;3.10;;
37199;SDS011;23096;50.892;16.746;2024-01-30T03:48:44;4.70;;;2.60;;
37199;SDS011;23096;50.892;16.746;2024-01-30T03:51:11;5.40;;;2.90;;
37199;SDS011;23096;50.892;16.746;2024-01-30T03:53:44;8.90;;;3.90;;
37199;SDS011;23096;50.892;16.746;2024-01-30T03:56:11;5.90;;;3.50;;
37199;SDS011;23096;50.892;16.746;2024-01-30T03:58:40;6.70;;;3.60;;
37199;SDS011;23096;50.892;16.746;2024-01-30T04:01:07;6.90;;;3.30;;
37199;SDS011;23096;50.892;16.746;2024-01-30T04:03:33;6.70;;;3.50;;
37199;SDS011;23096;50.892;16.746;2024-01-30T04:05:58;5.70;;;2.80;;
37199;SDS011;23096;50.892;16.746;2024-01-30T04:08:24;5.00;;;3.00;;
37199;SDS011;23096;50.892;16.746;2024-01-30T04:10:50;6.30;;;3.30;;
37199;SDS011;23096;50.892;16.746;2024-01-30T04:13:15;8.20;;;2.70;;
37199;SDS011;23096;50.892;16.746;2024-01-30T04:15:41;6.00;;;3.30;;
37199;SDS011;23096;50.892;16.746;2024-01-30T04:18:06;5.90;;;2.90;;
37199;SDS011;23096;50.892;16.746;2024-01-30T04:20:32;6.00;;;3.50;;
37199;SDS011;23096;50.892;16.746;2024-01-30T04:22:57;6.40;;;3.10;;
37199;SDS011;23096;50.892;16.746;2024-01-30T04:25:23;5.80;;;2.80;;
37199;SDS011;23096;50.892;16.746;2024-01-30T04:27:48;4.20;;;2.90;;
37199;SDS011;23096;50.892;16.746;2024-01-30T04:30:14;8.20;;;3.10;;
37199;SDS011;23096;50.892;16.746;2024-01-30T04:32:40;7.40;;;3.00;;
37199;SDS011;23096;50.892;16.746;2024-01-30T04:35:05;5.80;;;3.10;;
37199;SDS011;23096;50.892;16.746;2024-01-30T04:37:32;6.50;;;2.90;;
37199;SDS011;23096;50.892;16.746;2024-01-30T04:39:57;5.80;;;3.10;;
37199;SDS011;23096;50.892;16.746;2024-01-30T04:42:23;8.10;;;4.00;;
37199;SDS011;23096;50.892;16.746;2024-01-30T04:44:49;5.70;;;2.90;;
37199;SDS011;23096;50.892;16.746;2024-01-30T04:47:15;7.30;;;3.50;;
37199;SDS011;23096;50.892;16.746;2024-01-30T04:49:40;6.00;;;3.20;;
37199;SDS011;23096;50.892;16.746;2024-01-30T04:52:07;6.40;;;3.60;;
37199;SDS011;23096;50.892;16.746;2024-01-30T04:54:33;9.40;;;3.40;;
37199;SDS011;23096;50.892;16.746;2024-01-30T04:56:59;5.90;;;3.50;;
37199;SDS011;23096;50.892;16.746;2024-01-30T04:59:25;6.40;;;2.70;;
37199;SDS011;23096;50.892;16.746;2024-01-30T05:01:51;6.20;;;3.40;;
37199;SDS011;23096;50.892;16.746;2024-01-30T05:04:16;6.00;;;2.70;;
37199;SDS011;23096;50.892;16.746;2024-01-30T05:06:42;6.90;;;3.20;;
37199;SDS011;23096;50.892;16.746;2024-01-30T05:09:08;4.40;;;2.70;;
37199;SDS011;23096;50.892;16.746;2024-01-30T05:11:40;4.80;;;2.50;;
37199;SDS011;23096;50.892;16.746;2024-01-30T05:14:06;4.70;;;2.20;;
37199;SDS011;23096;50.892;16.746;2024-01-30T05:16:34;4.00;;;2.40;;
37199;SDS011;23096;50.892;16.746;2024-01-30T05:19:00;6.60;;;3.00;;
37199;SDS011;23096;50.892;16.746;2024-01-30T05:21:26;3.80;;;2.60;;
37199;SDS011;23096;50.892;16.746;2024-01-30T05:23:52;5.30;;;2.80;;
37199;SDS011;23096;50.892;16.746;2024-01-30T05:26:17;3.80;;;2.50;;
37199;SDS011;23096;50.892;16.746;2024-01-30T05:28:43;5.20;;;2.40;;
37199;SDS011;23096;50.892;16.746;2024-01-30T05:31:13;4.50;;;2.50;;
37199;SDS011;23096;50.892;16.746;2024-01-30T05:33:38;5.60;;;2.60;;
37199;SDS011;23096;50.892;16.746;2024-01-30T05:36:06;6.70;;;3.20;;
37199;SDS011;23096;50.892;16.746;2024-01-30T05:38:31;4.20;;;2.50;;
37199;SDS011;23096;50.892;16.746;2024-01-30T05:40:57;4.30;;;2.80;;
37199;SDS011;23096;50.892;16.746;2024-01-30T05:43:23;4.80;;;2.90;;
37199;SDS011;23096;50.892;16.746;2024-01-30T05:45:49;6.40;;;2.90;;
37199;SDS011;23096;50.892;16.746;2024-01-30T05:48:16;5.10;;;2.60;;
37199;SDS011;23096;50.892;16.746;2024-01-30T05:50:42;4.70;;;2.90;;
37199;SDS011;23096;50.892;16.746;2024-01-30T05:53:08;6.10;;;3.20;;
37199;SDS011;23096;50.892;16.746;2024-01-30T05:55:34;6.20;;;2.80;;
37199;SDS011;23096;50.892;16.746;2024-01-30T05:57:59;5.70;;;2.80;;
37199;SDS011;23096;50.892;16.746;2024-01-30T06:00:25;8.00;;;3.10;;
37199;SDS011;23096;50.892;16.746;2024-01-30T06:02:50;4.80;;;2.60;;
37199;SDS011;23096;50.892;16.746;2024-01-30T06:05:16;4.90;;;2.50;;
37199;SDS011;23096;50.892;16.746;2024-01-30T06:07:41;6.90;;;2.90;;
37199;SDS011;23096;50.892;16.746;2024-01-30T06:10:07;3.40;;;2.30;;
37199;SDS011;23096;50.892;16.746;2024-01-30T06:12:34;5.20;;;2.70;;
37199;SDS011;23096;50.892;16.746;2024-01-30T06:15:00;7.30;;;3.00;;
37199;SDS011;23096;50.892;16.746;2024-01-30T06:17:26;4.80;;;2.60;;
37199;SDS011;23096;50.892;16.746;2024-01-30T06:19:52;4.00;;;2.70;;
37199;SDS011;23096;50.892;16.746;2024-01-30T06:22:17;6.00;;;3.00;;
37199;SDS011;23096;50.892;16.746;2024-01-30T06:24:43;3.70;;;2.40;;
37199;SDS011;23096;50.892;16.746;2024-01-30T06:27:10;5.10;;;3.10;;
37199;SDS011;23096;50.892;16.746;2024-01-30T06:29:36;5.40;;;3.00;;
37199;SDS011;23096;50.892;16.746;2024-01-30T06:32:01;6.60;;;3.50;;
37199;SDS011;23096;50.892;16.746;2024-01-30T06:34:27;19.90;;;17.90;;
37199;SDS011;23096;50.892;16.746;2024-01-30T06:36:53;14.50;;;11.20;;
37199;SDS011;23096;50.892;16.746;2024-01-30T06:39:19;6.50;;;5.70;;
37199;SDS011;23096;50.892;16.746;2024-01-30T06:41:44;9.10;;;4.90;;
37199;SDS011;23096;50.892;16.746;2024-01-30T06:44:12;5.20;;;3.50;;
37199;SDS011;23096;50.892;16.746;2024-01-30T06:46:38;4.00;;;3.10;;
37199;SDS011;23096;50.892;16.746;2024-01-30T06:49:04;7.00;;;3.20;;
37199;SDS011;23096;50.892;16.746;2024-01-30T06:51:32;8.10;;;4.10;;
37199;SDS011;23096;50.892;16.746;2024-01-30T06:53:58;6.10;;;3.80;;
37199;SDS011;23096;50.892;16.746;2024-01-30T06:56:23;6.30;;;3.50;;
37199;SDS011;23096;50.892;16.746;2024-01-30T06:58:49;7.20;;;4.00;;
37199;SDS011;23096;50.892;16.746;2024-01-30T07:01:15;6.80;;;3.70;;
37199;SDS011;23096;50.892;16.746;2024-01-30T07:03:41;6.50;;;3.30;;
37199;SDS011;23096;50.892;16.746;2024-01-30T07:06:08;6.30;;;3.90;;
37199;SDS011;23096;50.892;16.746;2024-01-30T07:08:34;10.60;;;3.50;;
37199;SDS011;23096;50.892;16.746;2024-01-30T07:10:59;8.50;;;3.80;;
37199;SDS011;23096;50.892;16.746;2024-01-30T07:13:25;7.20;;;3.70;;
37199;SDS011;23096;50.892;16.746;2024-01-30T07:15:50;3.90;;;2.70;;
37199;SDS011;23096;50.892;16.746;2024-01-30T07:18:16;5.10;;;2.80;;
37199;SDS011;23096;50.892;16.746;2024-01-30T07:20:41;5.60;;;2.80;;
37199;SDS011;23096;50.892;16.746;2024-01-30T07:23:11;6.10;;;2.90;;
37199;SDS011;23096;50.892;16.746;2024-01-30T07:25:39;7.40;;;3.60;;
37199;SDS011;23096;50.892;16.746;2024-01-30T07:28:09;4.00;;;3.10;;
37199;SDS011;23096;50.892;16.746;2024-01-30T07:30:36;6.20;;;3.00;;
37199;SDS011;23096;50.892;16.746;2024-01-30T07:33:02;4.00;;;2.70;;
37199;SDS011;23096;50.892;16.746;2024-01-30T07:35:27;5.70;;;3.10;;
37199;SDS011;23096;50.892;16.746;2024-01-30T07:37:54;9.40;;;3.80;;
37199;SDS011;23096;50.892;16.746;2024-01-30T07:40:20;7.00;;;4.10;;
37199;SDS011;23096;50.892;16.746;2024-01-30T07:42:45;5.40;;;3.30;;
37199;SDS011;23096;50.892;16.746;2024-01-30T07:45:13;5.90;;;3.20;;
37199;SDS011;23096;50.892;16.746;2024-01-30T07:47:39;7.70;;;4.10;;
37199;SDS011;23096;50.892;16.746;2024-01-30T07:50:05;11.10;;;3.60;;
37199;SDS011;23096;50.892;16.746;2024-01-30T07:52:31;12.30;;;5.60;;
37199;SDS011;23096;50.892;16.746;2024-01-30T07:54:56;7.10;;;3.20;;
37199;SDS011;23096;50.892;16.746;2024-01-30T07:57:22;7.10;;;3.80;;
37199;SDS011;23096;50.892;16.746;2024-01-30T07:59:47;9.70;;;4.10;;
37199;SDS011;23096;50.892;16.746;2024-01-30T08:02:13;11.00;;;4.10;;
37199;SDS011;23096;50.892;16.746;2024-01-30T08:04:39;11.70;;;4.60;;
37199;SDS011;23096;50.892;16.746;2024-01-30T08:07:04;13.70;;;4.60;;
37199;SDS011;23096;50.892;16.746;2024-01-30T08:09:30;13.90;;;6.10;;
37199;SDS011;23096;50.892;16.746;2024-01-30T08:11:55;23.90;;;8.80;;
37199;SDS011;23096;50.892;16.746;2024-01-30T08:14:21;15.40;;;7.50;;
37199;SDS011;23096;50.892;16.746;2024-01-30T08:16:47;44.90;;;17.20;;
37199;SDS011;23096;50.892;16.746;2024-01-30T08:19:13;34.90;;;16.90;;
37199;SDS011;23096;50.892;16.746;2024-01-30T08:21:39;42.50;;;21.00;;
37199;SDS011;23096;50.892;16.746;2024-01-30T08:24:05;42.30;;;19.40;;
37199;SDS011;23096;50.892;16.746;2024-01-30T08:26:32;24.90;;;12.50;;
37199;SDS011;23096;50.892;16.746;2024-01-30T08:28:58;22.40;;;10.00;;
37199;SDS011;23096;50.892;16.746;2024-01-30T08:31:23;21.70;;;10.50;;
37199;SDS011;23096;50.892;16.746;2024-01-30T08:33:49;30.90;;;12.10;;
37199;SDS011;23096;50.892;16.746;2024-01-30T08:36:15;46.80;;;20.30;;
37199;SDS011;23096;50.892;16.746;2024-01-30T08:38:42;48.60;;;22.50;;
37199;SDS011;23096;50.892;16.746;2024-01-30T08:41:08;36.30;;;15.70;;
37199;SDS011;23096;50.892;16.746;2024-01-30T08:43:34;24.30;;;13.70;;
37199;SDS011;23096;50.892;16.746;2024-01-30T08:45:59;24.90;;;12.10;;
37199;SDS011;23096;50.892;16.746;2024-01-30T08:48:26;34.10;;;12.10;;
37199;SDS011;23096;50.892;16.746;2024-01-30T08:50:52;25.70;;;11.20;;
37199;SDS011;23096;50.892;16.746;2024-01-30T08:53:17;22.70;;;10.40;;
37199;SDS011;23096;50.892;16.746;2024-01-30T08:55:43;26.20;;;13.00;;
37199;SDS011;23096;50.892;16.746;2024-01-30T08:58:09;30.30;;;12.80;;
37199;SDS011;23096;50.892;16.746;2024-01-30T09:00:34;39.20;;;19.80;;
37199;SDS011;23096;50.892;16.746;2024-01-30T09:03:00;51.90;;;22.70;;
37199;SDS011;23096;50.892;16.746;2024-01-30T09:05:26;59.50;;;27.60;;
37199;SDS011;23096;50.892;16.746;2024-01-30T09:07:52;66.20;;;30.90;;
37199;SDS011;23096;50.892;16.746;2024-01-30T09:10:17;48.20;;;22.00;;
37199;SDS011;23096;50.892;16.746;2024-01-30T09:12:43;25.00;;;13.40;;
37199;SDS011;23096;50.892;16.746;2024-01-30T09:15:08;21.50;;;10.60;;
37199;SDS011;23096;50.892;16.746;2024-01-30T09:17:34;18.20;;;9.80;;
37199;SDS011;23096;50.892;16.746;2024-01-30T09:19:59;19.80;;;9.00;;
37199;SDS011;23096;50.892;16.746;2024-01-30T09:22:25;16.70;;;9.00;;
37199;SDS011;23096;50.892;16.746;2024-01-30T09:24:51;18.70;;;8.80;;
37199;SDS011;23096;50.892;16.746;2024-01-30T09:27:16;14.50;;;7.50;;
37199;SDS011;23096;50.892;16.746;2024-01-30T09:29:42;23.00;;;9.50;;
37199;SDS011;23096;50.892;16.746;2024-01-30T09:32:07;19.80;;;9.40;;
37199;SDS011;23096;50.892;16.746;2024-01-30T09:34:34;14.80;;;7.10;;
37199;SDS011;23096;50.892;16.746;2024-01-30T09:36:59;12.40;;;7.10;;
37199;SDS011;23096;50.892;16.746;2024-01-30T09:39:25;10.10;;;5.70;;
37199;SDS011;23096;50.892;16.746;2024-01-30T09:41:55;7.40;;;3.10;;
37199;SDS011;23096;50.892;16.746;2024-01-30T09:44:28;7.10;;;4.40;;
37199;SDS011;23096;50.892;16.746;2024-01-30T09:46:55;13.10;;;6.80;;
37199;SDS011;23096;50.892;16.746;2024-01-30T09:49:23;11.00;;;6.30;;
37199;SDS011;23096;50.892;16.746;2024-01-30T09:51:50;15.60;;;6.70;;
37199;SDS011;23096;50.892;16.746;2024-01-30T09:54:17;18.30;;;8.30;;
37199;SDS011;23096;50.892;16.746;2024-01-30T09:56:44;13.70;;;7.50;;
37199;SDS011;23096;50.892;16.746;2024-01-30T09:59:10;14.90;;;7.80;;
37199;SDS011;23096;50.892;16.746;2024-01-30T10:01:36;20.80;;;9.50;;
37199;SDS011;23096;50.892;16.746;2024-01-30T10:04:01;14.20;;;8.30;;
37199;SDS011;23096;50.892;16.746;2024-01-30T10:06:27;17.70;;;10.70;;
37199;SDS011;23096;50.892;16.746;2024-01-30T10:08:53;19.10;;;11.50;;
37199;SDS011;23096;50.892;16.746;2024-01-30T10:11:19;23.30;;;12.70;;
37199;SDS011;23096;50.892;16.746;2024-01-30T10:13:44;21.30;;;11.10;;
37199;SDS011;23096;50.892;16.746;2024-01-30T10:16:13;20.00;;;9.80;;
37199;SDS011;23096;50.892;16.746;2024-01-30T10:18:41;14.90;;;8.10;;
37199;SDS011;23096;50.892;16.746;2024-01-30T10:21:07;13.00;;;7.20;;
37199;SDS011;23096;50.892;16.746;2024-01-30T10:23:33;11.00;;;6.80;;
37199;SDS011;23096;50.892;16.746;2024-01-30T10:25:58;11.20;;;6.70;;
37199;SDS011;23096;50.892;16.746;2024-01-30T10:28:26;6.40;;;4.70;;
37199;SDS011;23096;50.892;16.746;2024-01-30T10:30:58;10.80;;;6.60;;
37199;SDS011;23096;50.892;16.746;2024-01-30T10:33:29;10.60;;;4.60;;
37199;SDS011;23096;50.892;16.746;2024-01-30T10:35:58;11.30;;;4.40;;
37199;SDS011;23096;50.892;16.746;2024-01-30T10:38:27;11.20;;;5.50;;
37199;SDS011;23096;50.892;16.746;2024-01-30T10:40:58;12.00;;;4.90;;
37199;SDS011;23096;50.892;16.746;2024-01-30T10:43:47;21.50;;;5.80;;
37199;SDS011;23096;50.892;16.746;2024-01-30T10:46:17;12.00;;;5.20;;
37199;SDS011;23096;50.892;16.746;2024-01-30T10:48:46;10.00;;;5.00;;
37199;SDS011;23096;50.892;16.746;2024-01-30T10:51:24;9.20;;;5.50;;
37199;SDS011;23096;50.892;16.746;2024-01-30T10:53:51;10.70;;;4.00;;
37199;SDS011;23096;50.892;16.746;2024-01-30T10:56:19;11.70;;;3.90;;
37199;SDS011;23096;50.892;16.746;2024-01-30T10:58:47;9.20;;;4.80;;
37199;SDS011;23096;50.892;16.746;2024-01-30T11:01:14;4.90;;;3.40;;
37199;SDS011;23096;50.892;16.746;2024-01-30T11:03:40;16.10;;;4.70;;
37199;SDS011;23096;50.892;16.746;2024-01-30T11:06:10;10.90;;;5.10;;
37199;SDS011;23096;50.892;16.746;2024-01-30T11:08:36;12.60;;;6.90;;
37199;SDS011;23096;50.892;16.746;2024-01-30T11:11:02;11.00;;;5.40;;
37199;SDS011;23096;50.892;16.746;2024-01-30T11:13:34;11.60;;;5.50;;
37199;SDS011;23096;50.892;16.746;2024-01-30T11:16:09;11.70;;;4.80;;
37199;SDS011;23096;50.892;16.746;2024-01-30T11:18:36;8.30;;;4.20;;
37199;SDS011;23096;50.892;16.746;2024-01-30T11:21:04;6.50;;;4.10;;
37199;SDS011;23096;50.892;16.746;2024-01-30T11:23:30;7.90;;;4.50;;
37199;SDS011;23096;50.892;16.746;2024-01-30T11:25:57;12.10;;;5.20;;
37199;SDS011;23096;50.892;16.746;2024-01-30T11:28:23;10.20;;;4.00;;
37199;SDS011;23096;50.892;16.746;2024-01-30T11:30:49;10.80;;;4.30;;
37199;SDS011;23096;50.892;16.746;2024-01-30T11:33:27;10.80;;;3.80;;
37199;SDS011;23096;50.892;16.746;2024-01-30T11:43:01;15.60;;;4.70;;
37199;SDS011;23096;50.892;16.746;2024-01-30T11:45:28;7.30;;;5.00;;
37199;SDS011;23096;50.892;16.746;2024-01-30T11:47:54;16.30;;;6.20;;
37199;SDS011;23096;50.892;16.746;2024-01-30T11:50:20;14.50;;;5.00;;
37199;SDS011;23096;50.892;16.746;2024-01-30T11:52:47;18.30;;;5.40;;
37199;SDS011;23096;50.892;16.746;2024-01-30T11:55:13;9.60;;;5.60;;
37199;SDS011;23096;50.892;16.746;2024-01-30T11:57:39;10.30;;;5.80;;
37199;SDS011;23096;50.892;16.746;2024-01-30T12:00:05;8.50;;;4.70;;
37199;SDS011;23096;50.892;16.746;2024-01-30T12:02:39;14.10;;;5.30;;
37199;SDS011;23096;50.892;16.746;2024-01-30T12:05:05;10.40;;;5.80;;
37199;SDS011;23096;50.892;16.746;2024-01-30T12:07:32;9.90;;;4.80;;
37199;SDS011;23096;50.892;16.746;2024-01-30T12:09:58;8.90;;;4.20;;
37199;SDS011;23096;50.892;16.746;2024-01-30T12:12:26;9.70;;;4.90;;
37199;SDS011;23096;50.892;16.746;2024-01-30T12:14:53;9.10;;;4.60;;
37199;SDS011;23096;50.892;16.746;2024-01-30T12:20:11;10.30;;;6.20;;
37199;SDS011;23096;50.892;16.746;2024-01-30T12:25:14;14.60;;;6.90;;
37199;SDS011;23096;50.892;16.746;2024-01-30T12:27:45;16.90;;;8.10;;
37199;SDS011;23096;50.892;16.746;2024-01-30T12:30:15;11.90;;;5.60;;
37199;SDS011;23096;50.892;16.746;2024-01-30T12:32:41;9.60;;;6.10;;
37199;SDS011;23096;50.892;16.746;2024-01-30T12:35:14;10.90;;;4.90;;
37199;SDS011;23096;50.892;16.746;2024-01-30T12:37:42;13.10;;;6.10;;
37199;SDS011;23096;50.892;16.746;2024-01-30T12:40:09;15.30;;;5.90;;
37199;SDS011;23096;50.892;16.746;2024-01-30T12:46:05;14.10;;;5.80;;
37199;SDS011;23096;50.892;16.746;2024-01-30T12:48:31;11.20;;;5.20;;
37199;SDS011;23096;50.892;16.746;2024-01-30T12:50:56;20.60;;;6.40;;
37199;SDS011;23096;50.892;16.746;2024-01-30T12:53:22;13.70;;;6.60;;
37199;SDS011;23096;50.892;16.746;2024-01-30T12:55:48;10.70;;;5.40;;
37199;SDS011;23096;50.892;16.746;2024-01-30T12:58:15;12.10;;;5.80;;
37199;SDS011;23096;50.892;16.746;2024-01-30T13:00:41;16.10;;;5.00;;
37199;SDS011;23096;50.892;16.746;2024-01-30T13:03:08;9.60;;;4.90;;
37199;SDS011;23096;50.892;16.746;2024-01-30T13:05:35;8.80;;;4.60;;
37199;SDS011;23096;50.892;16.746;2024-01-30T13:08:00;8.30;;;5.00;;
37199;SDS011;23096;50.892;16.746;2024-01-30T13:10:26;11.40;;;5.50;;
37199;SDS011;23096;50.892;16.746;2024-01-30T13:12:52;9.10;;;4.30;;
37199;SDS011;23096;50.892;16.746;2024-01-30T13:15:18;14.70;;;6.50;;
37199;SDS011;23096;50.892;16.746;2024-01-30T13:17:43;9.20;;;4.60;;
37199;SDS011;23096;50.892;16.746;2024-01-30T13:20:12;10.10;;;5.30;;
37199;SDS011;23096;50.892;16.746;2024-01-30T13:22:42;11.50;;;5.40;;
37199;SDS011;23096;50.892;16.746;2024-01-30T13:25:08;11.90;;;4.90;;
37199;SDS011;23096;50.892;16.746;2024-01-30T13:27:34;22.50;;;7.00;;
37199;SDS011;23096;50.892;16.746;2024-01-30T13:29:59;14.30;;;4.60;;
37199;SDS011;23096;50.892;16.746;2024-01-30T13:32:25;13.60;;;5.70;;
37199;SDS011;23096;50.892;16.746;2024-01-30T13:34:51;10.70;;;4.50;;
37199;SDS011;23096;50.892;16.746;2024-01-30T13:37:16;8.90;;;5.60;;
37199;SDS011;23096;50.892;16.746;2024-01-30T13:39:42;10.50;;;4.90;;
37199;SDS011;23096;50.892;16.746;2024-01-30T13:42:07;14.90;;;6.30;;
37199;SDS011;23096;50.892;16.746;2024-01-30T13:44:34;21.00;;;8.00;;
37199;SDS011;23096;50.892;16.746;2024-01-30T13:47:01;10.90;;;6.30;;
37199;SDS011;23096;50.892;16.746;2024-01-30T13:49:27;10.80;;;5.60;;
37199;SDS011;23096;50.892;16.746;2024-01-30T13:51:53;32.40;;;6.60;;
37199;SDS011;23096;50.892;16.746;2024-01-30T13:54:18;16.10;;;6.50;;
37199;SDS011;23096;50.892;16.746;2024-01-30T13:56:44;21.40;;;6.40;;
37199;SDS011;23096;50.892;16.746;2024-01-30T13:59:10;15.80;;;6.30;;
37199;SDS011;23096;50.892;16.746;2024-01-30T14:01:36;13.20;;;5.90;;
37199;SDS011;23096;50.892;16.746;2024-01-30T14:04:02;13.10;;;7.10;;
37199;SDS011;23096;50.892;16.746;2024-01-30T14:06:28;17.00;;;6.50;;
37199;SDS011;23096;50.892;16.746;2024-01-30T14:08:53;22.30;;;6.80;;
37199;SDS011;23096;50.892;16.746;2024-01-30T14:11:19;15.20;;;6.10;;
37199;SDS011;23096;50.892;16.746;2024-01-30T14:13:44;11.50;;;6.10;;
37199;SDS011;23096;50.892;16.746;2024-01-30T14:16:10;12.50;;;5.80;;
37199;SDS011;23096;50.892;16.746;2024-01-30T14:18:36;10.20;;;5.50;;
37199;SDS011;23096;50.892;16.746;2024-01-30T14:21:01;11.30;;;5.10;;
37199;SDS011;23096;50.892;16.746;2024-01-30T14:23:27;20.60;;;11.10;;
37199;SDS011;23096;50.892;16.746;2024-01-30T14:25:53;16.70;;;7.50;;
37199;SDS011;23096;50.892;16.746;2024-01-30T14:28:18;13.40;;;7.10;;
37199;SDS011;23096;50.892;16.746;2024-01-30T14:30:44;12.10;;;7.20;;
37199;SDS011;23096;50.892;16.746;2024-01-30T14:33:09;12.00;;;6.20;;
37199;SDS011;23096;50.892;16.746;2024-01-30T14:35:35;13.40;;;5.70;;
37199;SDS011;23096;50.892;16.746;2024-01-30T14:38:01;18.00;;;7.10;;